sensor_id;sensor_type;location;lat;lon;timestamp;temperature;humidity
34646;DHT22;20857;47.808;12.482;2023-08-07T00:01:53;13.10;99.90
34646;DHT22;20857;47.808;12.482;2023-08-07T00:04:19;13.10;99.90
34646;DHT22;20857;47.808;12.482;2023-08-07T00:06:44;13.00;99.90
34646;DHT22;20857;47.808;12.482;2023-08-07T00:09:10;13.00;99.90
34646;DHT22;20857;47.808;12.482;2023-08-07T00:11:35;13.00;99.90
34646;DHT22;20857;47.808;12.482;2023-08-07T00:14:01;13.20;99.90
34646;DHT22;20857;47.808;12.482;2023-08-07T00:16:27;13.00;99.90
34646;DHT22;20857;47.808;12.482;2023-08-07T00:18:52;13.00;99.90
34646;DHT22;20857;47.808;12.482;2023-08-07T00:21:23;13.10;99.90
34646;DHT22;20857;47.808;12.482;2023-08-07T00:23:49;13.00;99.90
34646;DHT22;20857;47.808;12.482;2023-08-07T00:26:15;13.00;99.90
34646;DHT22;20857;47.808;12.482;2023-08-07T00:28:41;13.00;99.90
34646;DHT22;20857;47.808;12.482;2023-08-07T00:31:06;13.00;99.90
34646;DHT22;20857;47.808;12.482;2023-08-07T00:33:32;13.10;99.90
34646;DHT22;20857;47.808;12.482;2023-08-07T00:35:58;13.00;99.90
34646;DHT22;20857;47.808;12.482;2023-08-07T00:38:23;13.00;99.90
34646;DHT22;20857;47.808;12.482;2023-08-07T00:40:49;13.00;99.90
34646;DHT22;20857;47.808;12.482;2023-08-07T00:43:14;13.00;99.90
34646;DHT22;20857;47.808;12.482;2023-08-07T00:45:45;12.90;99.90
34646;DHT22;20857;47.808;12.482;2023-08-07T00:48:11;12.80;99.90
34646;DHT22;20857;47.808;12.482;2023-08-07T00:50:39;12.80;99.90
34646;DHT22;20857;47.808;12.482;2023-08-07T00:53:05;12.60;99.90
34646;DHT22;20857;47.808;12.482;2023-08-07T00:55:32;12.60;99.90
34646;DHT22;20857;47.808;12.482;2023-08-07T00:57:58;12.40;99.90
34646;DHT22;20857;47.808;12.482;2023-08-07T01:00:25;12.30;99.90
34646;DHT22;20857;47.808;12.482;2023-08-07T01:02:52;12.30;99.90
34646;DHT22;20857;47.808;12.482;2023-08-07T01:05:20;12.20;99.90
34646;DHT22;20857;47.808;12.482;2023-08-07T01:07:47;12.20;99.90
34646;DHT22;20857;47.808;12.482;2023-08-07T01:10:13;12.10;99.90
34646;DHT22;20857;47.808;12.482;2023-08-07T01:12:53;11.90;99.90
34646;DHT22;20857;47.808;12.482;2023-08-07T01:15:30;11.60;99.90
34646;DHT22;20857;47.808;12.482;2023-08-07T01:17:56;11.60;99.90
34646;DHT22;20857;47.808;12.482;2023-08-07T01:20:23;11.50;99.90
34646;DHT22;20857;47.808;12.482;2023-08-07T01:25:15;11.80;99.90
34646;DHT22;20857;47.808;12.482;2023-08-07T01:27:53;11.90;99.90
34646;DHT22;20857;47.808;12.482;2023-08-07T01:30:30;11.80;99.90
34646;DHT22;20857;47.808;12.482;2023-08-07T01:33:24;11.80;99.90
34646;DHT22;20857;47.808;12.482;2023-08-07T01:35:53;11.70;99.90
34646;DHT22;20857;47.808;12.482;2023-08-07T01:38:24;11.70;99.90
34646;DHT22;20857;47.808;12.482;2023-08-07T01:40:51;11.60;99.90
34646;DHT22;20857;47.808;12.482;2023-08-07T01:43:18;11.50;99.90
34646;DHT22;20857;47.808;12.482;2023-08-07T01:45:45;11.40;99.90
34646;DHT22;20857;47.808;12.482;2023-08-07T01:48:10;11.40;99.90
34646;DHT22;20857;47.808;12.482;2023-08-07T01:50:38;11.50;99.90
34646;DHT22;20857;47.808;12.482;2023-08-07T01:53:03;11.50;99.90
34646;DHT22;20857;47.808;12.482;2023-08-07T01:55:29;11.40;99.90
34646;DHT22;20857;47.808;12.482;2023-08-07T01:57:55;11.40;99.90
34646;DHT22;20857;47.808;12.482;2023-08-07T02:00:21;12.10;99.90
34646;DHT22;20857;47.808;12.482;2023-08-07T02:02:46;11.30;99.90
34646;DHT22;20857;47.808;12.482;2023-08-07T02:05:13;11.30;99.90
34646;DHT22;20857;47.808;12.482;2023-08-07T02:07:38;11.70;99.90
34646;DHT22;20857;47.808;12.482;2023-08-07T02:10:04;13.00;99.90
34646;DHT22;20857;47.808;12.482;2023-08-07T02:12:30;11.00;99.90
34646;DHT22;20857;47.808;12.482;2023-08-07T02:14:58;10.80;99.90
34646;DHT22;20857;47.808;12.482;2023-08-07T02:17:24;10.70;99.90
34646;DHT22;20857;47.808;12.482;2023-08-07T02:22:16;10.70;99.90
34646;DHT22;20857;47.808;12.482;2023-08-07T02:29:34;10.40;99.90
34646;DHT22;20857;47.808;12.482;2023-08-07T02:32:03;10.30;99.90
34646;DHT22;20857;47.808;12.482;2023-08-07T02:51:32;10.10;99.90
34646;DHT22;20857;47.808;12.482;2023-08-07T02:56:24;10.00;99.90
34646;DHT22;20857;47.808;12.482;2023-08-07T03:01:15;9.80;99.90
34646;DHT22;20857;47.808;12.482;2023-08-07T03:06:07;9.80;99.90
34646;DHT22;20857;47.808;12.482;2023-08-07T03:16:02;9.90;99.90
34646;DHT22;20857;47.808;12.482;2023-08-07T03:18:28;9.80;99.90
34646;DHT22;20857;47.808;12.482;2023-08-07T03:20:57;9.80;99.90
34646;DHT22;20857;47.808;12.482;2023-08-07T03:23:24;9.90;99.90
34646;DHT22;20857;47.808;12.482;2023-08-07T03:28:17;10.00;99.90
34646;DHT22;20857;47.808;12.482;2023-08-07T03:38:02;10.10;99.90
34646;DHT22;20857;47.808;12.482;2023-08-07T03:47:46;10.10;99.90
34646;DHT22;20857;47.808;12.482;2023-08-07T03:52:38;10.30;99.90
34646;DHT22;20857;47.808;12.482;2023-08-07T03:55:04;10.40;99.90
34646;DHT22;20857;47.808;12.482;2023-08-07T03:57:29;10.40;99.90
34646;DHT22;20857;47.808;12.482;2023-08-07T03:59:55;10.40;99.90
34646;DHT22;20857;47.808;12.482;2023-08-07T04:07:14;10.60;99.90
34646;DHT22;20857;47.808;12.482;2023-08-07T04:09:39;10.60;99.90
34646;DHT22;20857;47.808;12.482;2023-08-07T04:12:05;11.70;99.90
34646;DHT22;20857;47.808;12.482;2023-08-07T04:33:59;10.70;99.90
34646;DHT22;20857;47.808;12.482;2023-08-07T04:36:25;12.20;99.90
34646;DHT22;20857;47.808;12.482;2023-08-07T04:38:51;11.20;99.90
34646;DHT22;20857;47.808;12.482;2023-08-07T04:41:16;12.10;99.90
34646;DHT22;20857;47.808;12.482;2023-08-07T04:43:42;11.50;99.90
34646;DHT22;20857;47.808;12.482;2023-08-07T04:46:09;11.50;99.90
34646;DHT22;20857;47.808;12.482;2023-08-07T04:48:35;12.80;99.90
34646;DHT22;20857;47.808;12.482;2023-08-07T04:51:02;12.00;99.90
34646;DHT22;20857;47.808;12.482;2023-08-07T04:53:27;11.00;99.90
34646;DHT22;20857;47.808;12.482;2023-08-07T04:55:53;11.10;99.90
34646;DHT22;20857;47.808;12.482;2023-08-07T04:58:19;13.10;99.90
34646;DHT22;20857;47.808;12.482;2023-08-07T05:00:44;11.30;99.90
34646;DHT22;20857;47.808;12.482;2023-08-07T05:03:10;11.30;99.90
34646;DHT22;20857;47.808;12.482;2023-08-07T05:05:36;12.40;99.90
34646;DHT22;20857;47.808;12.482;2023-08-07T05:08:01;11.40;99.90
34646;DHT22;20857;47.808;12.482;2023-08-07T05:10:27;11.50;99.90
34646;DHT22;20857;47.808;12.482;2023-08-07T05:12:53;11.60;99.90
34646;DHT22;20857;47.808;12.482;2023-08-07T05:15:22;11.70;99.90
34646;DHT22;20857;47.808;12.482;2023-08-07T05:17:50;12.80;99.90
34646;DHT22;20857;47.808;12.482;2023-08-07T05:20:16;11.70;99.90
34646;DHT22;20857;47.808;12.482;2023-08-07T05:22:42;11.70;99.90
34646;DHT22;20857;47.808;12.482;2023-08-07T05:25:08;12.70;99.90
34646;DHT22;20857;47.808;12.482;2023-08-07T05:27:35;13.50;99.90
34646;DHT22;20857;47.808;12.482;2023-08-07T05:30:00;12.40;99.90
34646;DHT22;20857;47.808;12.482;2023-08-07T05:32:26;14.00;99.90
34646;DHT22;20857;47.808;12.482;2023-08-07T05:34:52;12.10;99.90
34646;DHT22;20857;47.808;12.482;2023-08-07T05:37:17;12.50;99.90
34646;DHT22;20857;47.808;12.482;2023-08-07T05:39:43;12.00;99.90
34646;DHT22;20857;47.808;12.482;2023-08-07T05:42:09;12.10;99.90
34646;DHT22;20857;47.808;12.482;2023-08-07T05:44:35;12.10;99.90
34646;DHT22;20857;47.808;12.482;2023-08-07T05:47:01;12.10;99.90
34646;DHT22;20857;47.808;12.482;2023-08-07T05:49:27;12.20;99.90
34646;DHT22;20857;47.808;12.482;2023-08-07T05:51:53;12.20;99.90
34646;DHT22;20857;47.808;12.482;2023-08-07T05:54:18;12.20;99.90
34646;DHT22;20857;47.808;12.482;2023-08-07T05:56:44;12.30;99.90
34646;DHT22;20857;47.808;12.482;2023-08-07T05:59:10;12.30;99.90
34646;DHT22;20857;47.808;12.482;2023-08-07T06:01:35;12.30;99.90
34646;DHT22;20857;47.808;12.482;2023-08-07T06:04:02;12.30;99.90
34646;DHT22;20857;47.808;12.482;2023-08-07T06:06:28;12.40;99.90
34646;DHT22;20857;47.808;12.482;2023-08-07T06:08:54;12.40;99.90
34646;DHT22;20857;47.808;12.482;2023-08-07T06:11:20;12.30;99.90
34646;DHT22;20857;47.808;12.482;2023-08-07T06:13:45;12.30;99.90
34646;DHT22;20857;47.808;12.482;2023-08-07T06:16:11;12.20;99.90
34646;DHT22;20857;47.808;12.482;2023-08-07T06:18:37;12.20;99.90
34646;DHT22;20857;47.808;12.482;2023-08-07T06:21:03;12.30;99.90
34646;DHT22;20857;47.808;12.482;2023-08-07T06:23:34;12.30;99.90
34646;DHT22;20857;47.808;12.482;2023-08-07T06:26:00;12.20;99.90
34646;DHT22;20857;47.808;12.482;2023-08-07T06:28:32;12.20;99.90
34646;DHT22;20857;47.808;12.482;2023-08-07T06:31:02;12.20;99.90
34646;DHT22;20857;47.808;12.482;2023-08-07T06:33:28;13.00;99.90
34646;DHT22;20857;47.808;12.482;2023-08-07T06:35:53;12.10;99.90
34646;DHT22;20857;47.808;12.482;2023-08-07T06:38:19;12.80;99.90
34646;DHT22;20857;47.808;12.482;2023-08-07T06:40:44;12.50;99.90
34646;DHT22;20857;47.808;12.482;2023-08-07T06:43:11;12.00;99.90
34646;DHT22;20857;47.808;12.482;2023-08-07T06:45:37;12.30;99.90
34646;DHT22;20857;47.808;12.482;2023-08-07T06:48:02;12.20;99.90
34646;DHT22;20857;47.808;12.482;2023-08-07T06:50:28;12.20;99.90
34646;DHT22;20857;47.808;12.482;2023-08-07T06:52:54;12.20;99.90
34646;DHT22;20857;47.808;12.482;2023-08-07T06:55:19;12.30;99.90
34646;DHT22;20857;47.808;12.482;2023-08-07T06:57:45;12.30;99.90
34646;DHT22;20857;47.808;12.482;2023-08-07T07:00:11;12.50;99.90
34646;DHT22;20857;47.808;12.482;2023-08-07T07:02:37;12.50;99.90
34646;DHT22;20857;47.808;12.482;2023-08-07T07:05:03;12.60;99.90
34646;DHT22;20857;47.808;12.482;2023-08-07T07:07:30;12.70;99.90
34646;DHT22;20857;47.808;12.482;2023-08-07T07:09:56;12.70;99.90
34646;DHT22;20857;47.808;12.482;2023-08-07T07:12:23;12.80;99.90
34646;DHT22;20857;47.808;12.482;2023-08-07T07:14:49;12.90;99.90
34646;DHT22;20857;47.808;12.482;2023-08-07T07:17:14;12.90;99.90
34646;DHT22;20857;47.808;12.482;2023-08-07T07:19:40;13.10;99.90
34646;DHT22;20857;47.808;12.482;2023-08-07T07:22:05;13.20;99.90
34646;DHT22;20857;47.808;12.482;2023-08-07T07:24:31;13.10;99.90
34646;DHT22;20857;47.808;12.482;2023-08-07T07:26:56;13.30;99.90
34646;DHT22;20857;47.808;12.482;2023-08-07T07:29:22;13.30;99.90
34646;DHT22;20857;47.808;12.482;2023-08-07T07:31:50;13.20;99.90
34646;DHT22;20857;47.808;12.482;2023-08-07T07:34:15;13.10;99.90
34646;DHT22;20857;47.808;12.482;2023-08-07T07:36:41;13.10;99.90
34646;DHT22;20857;47.808;12.482;2023-08-07T07:39:07;13.10;99.90
34646;DHT22;20857;47.808;12.482;2023-08-07T07:41:32;13.20;99.90
34646;DHT22;20857;47.808;12.482;2023-08-07T07:43:58;13.20;99.90
34646;DHT22;20857;47.808;12.482;2023-08-07T07:46:23;13.30;99.90
34646;DHT22;20857;47.808;12.482;2023-08-07T07:48:49;13.30;99.90
34646;DHT22;20857;47.808;12.482;2023-08-07T07:51:15;13.40;99.90
34646;DHT22;20857;47.808;12.482;2023-08-07T07:53:43;13.50;99.90
34646;DHT22;20857;47.808;12.482;2023-08-07T07:56:08;13.50;99.90
34646;DHT22;20857;47.808;12.482;2023-08-07T07:58:34;13.50;99.90
34646;DHT22;20857;47.808;12.482;2023-08-07T08:00:59;13.60;99.90
34646;DHT22;20857;47.808;12.482;2023-08-07T08:03:25;13.70;99.90
34646;DHT22;20857;47.808;12.482;2023-08-07T08:05:51;13.70;99.90
34646;DHT22;20857;47.808;12.482;2023-08-07T08:08:17;13.60;99.90
34646;DHT22;20857;47.808;12.482;2023-08-07T08:10:44;13.50;99.90
34646;DHT22;20857;47.808;12.482;2023-08-07T08:13:10;13.40;99.90
34646;DHT22;20857;47.808;12.482;2023-08-07T08:15:36;13.50;99.90
34646;DHT22;20857;47.808;12.482;2023-08-07T08:18:02;13.60;99.90
34646;DHT22;20857;47.808;12.482;2023-08-07T08:20:27;13.70;99.90
34646;DHT22;20857;47.808;12.482;2023-08-07T08:22:55;13.90;99.90
34646;DHT22;20857;47.808;12.482;2023-08-07T08:25:20;13.90;99.90
34646;DHT22;20857;47.808;12.482;2023-08-07T08:27:46;14.20;99.90
34646;DHT22;20857;47.808;12.482;2023-08-07T08:30:12;14.50;99.90
34646;DHT22;20857;47.808;12.482;2023-08-07T08:32:38;14.60;99.90
34646;DHT22;20857;47.808;12.482;2023-08-07T08:35:05;14.80;99.90
34646;DHT22;20857;47.808;12.482;2023-08-07T08:37:31;14.90;99.90
34646;DHT22;20857;47.808;12.482;2023-08-07T08:39:56;15.00;99.90
34646;DHT22;20857;47.808;12.482;2023-08-07T08:42:22;15.30;99.90
34646;DHT22;20857;47.808;12.482;2023-08-07T08:44:53;15.00;99.90
34646;DHT22;20857;47.808;12.482;2023-08-07T08:47:19;15.00;99.90
34646;DHT22;20857;47.808;12.482;2023-08-07T08:50:10;15.30;99.90
34646;DHT22;20857;47.808;12.482;2023-08-07T08:52:40;15.40;99.90
34646;DHT22;20857;47.808;12.482;2023-08-07T08:55:06;15.40;99.90
34646;DHT22;20857;47.808;12.482;2023-08-07T08:57:33;15.30;99.90
34646;DHT22;20857;47.808;12.482;2023-08-07T08:59:58;15.10;99.90
34646;DHT22;20857;47.808;12.482;2023-08-07T09:02:25;14.60;99.90
34646;DHT22;20857;47.808;12.482;2023-08-07T09:04:51;14.50;99.90
34646;DHT22;20857;47.808;12.482;2023-08-07T09:07:19;14.50;99.90
34646;DHT22;20857;47.808;12.482;2023-08-07T09:09:46;14.60;99.90
34646;DHT22;20857;47.808;12.482;2023-08-07T09:12:19;14.80;99.90
34646;DHT22;20857;47.808;12.482;2023-08-07T09:14:52;14.80;99.90
34646;DHT22;20857;47.808;12.482;2023-08-07T09:17:24;14.40;99.90
34646;DHT22;20857;47.808;12.482;2023-08-07T09:19:50;14.20;99.90
34646;DHT22;20857;47.808;12.482;2023-08-07T09:22:16;14.20;99.90
34646;DHT22;20857;47.808;12.482;2023-08-07T09:24:42;14.50;99.90
34646;DHT22;20857;47.808;12.482;2023-08-07T09:27:08;14.80;99.90
34646;DHT22;20857;47.808;12.482;2023-08-07T09:29:33;14.70;99.90
34646;DHT22;20857;47.808;12.482;2023-08-07T09:32:07;14.80;99.90
34646;DHT22;20857;47.808;12.482;2023-08-07T09:34:33;14.70;99.90
34646;DHT22;20857;47.808;12.482;2023-08-07T09:36:59;14.60;99.90
34646;DHT22;20857;47.808;12.482;2023-08-07T09:39:24;14.50;99.90
34646;DHT22;20857;47.808;12.482;2023-08-07T09:41:53;14.50;99.90
34646;DHT22;20857;47.808;12.482;2023-08-07T09:44:19;14.20;99.90
34646;DHT22;20857;47.808;12.482;2023-08-07T09:46:45;14.10;99.90
34646;DHT22;20857;47.808;12.482;2023-08-07T09:49:11;14.00;99.90
34646;DHT22;20857;47.808;12.482;2023-08-07T09:51:44;14.10;99.90
34646;DHT22;20857;47.808;12.482;2023-08-07T09:54:10;14.10;99.90
34646;DHT22;20857;47.808;12.482;2023-08-07T09:56:36;13.90;99.90
34646;DHT22;20857;47.808;12.482;2023-08-07T09:59:02;13.80;99.90
34646;DHT22;20857;47.808;12.482;2023-08-07T10:01:29;13.60;99.90
34646;DHT22;20857;47.808;12.482;2023-08-07T10:03:55;13.50;99.90
34646;DHT22;20857;47.808;12.482;2023-08-07T10:06:21;13.50;99.90
34646;DHT22;20857;47.808;12.482;2023-08-07T10:08:46;13.60;99.90
34646;DHT22;20857;47.808;12.482;2023-08-07T10:11:12;13.80;99.90
34646;DHT22;20857;47.808;12.482;2023-08-07T10:13:40;13.90;99.90
34646;DHT22;20857;47.808;12.482;2023-08-07T10:16:06;14.00;99.90
34646;DHT22;20857;47.808;12.482;2023-08-07T10:18:32;14.20;99.90
34646;DHT22;20857;47.808;12.482;2023-08-07T10:20:57;14.20;99.90
34646;DHT22;20857;47.808;12.482;2023-08-07T10:23:25;14.20;99.90
34646;DHT22;20857;47.808;12.482;2023-08-07T10:25:51;14.00;99.90
34646;DHT22;20857;47.808;12.482;2023-08-07T10:28:19;14.00;99.90
34646;DHT22;20857;47.808;12.482;2023-08-07T10:30:45;14.00;99.90
34646;DHT22;20857;47.808;12.482;2023-08-07T10:33:12;14.00;99.90
34646;DHT22;20857;47.808;12.482;2023-08-07T10:35:45;14.20;99.90
34646;DHT22;20857;47.808;12.482;2023-08-07T10:38:11;14.50;99.90
34646;DHT22;20857;47.808;12.482;2023-08-07T10:40:59;14.90;99.90
34646;DHT22;20857;47.808;12.482;2023-08-07T10:43:29;14.90;99.90
34646;DHT22;20857;47.808;12.482;2023-08-07T10:46:02;15.10;99.90
34646;DHT22;20857;47.808;12.482;2023-08-07T10:48:28;15.20;99.90
34646;DHT22;20857;47.808;12.482;2023-08-07T10:53:21;14.90;99.90
34646;DHT22;20857;47.808;12.482;2023-08-07T10:55:49;14.90;99.90
34646;DHT22;20857;47.808;12.482;2023-08-07T10:58:25;15.30;99.90
34646;DHT22;20857;47.808;12.482;2023-08-07T11:00:52;15.90;99.90
34646;DHT22;20857;47.808;12.482;2023-08-07T11:03:27;16.00;99.90
34646;DHT22;20857;47.808;12.482;2023-08-07T11:05:53;16.20;99.90
34646;DHT22;20857;47.808;12.482;2023-08-07T11:08:23;16.00;99.90
34646;DHT22;20857;47.808;12.482;2023-08-07T11:10:51;15.60;99.90
34646;DHT22;20857;47.808;12.482;2023-08-07T11:13:16;15.50;99.90
34646;DHT22;20857;47.808;12.482;2023-08-07T11:15:43;15.20;99.90
34646;DHT22;20857;47.808;12.482;2023-08-07T11:18:09;15.40;99.90
34646;DHT22;20857;47.808;12.482;2023-08-07T11:20:35;15.20;99.90
34646;DHT22;20857;47.808;12.482;2023-08-07T11:23:04;15.20;99.90
34646;DHT22;20857;47.808;12.482;2023-08-07T11:25:30;15.60;99.90
34646;DHT22;20857;47.808;12.482;2023-08-07T11:27:56;16.20;99.90
34646;DHT22;20857;47.808;12.482;2023-08-07T11:30:22;16.30;99.90
34646;DHT22;20857;47.808;12.482;2023-08-07T11:32:47;16.50;99.90
34646;DHT22;20857;47.808;12.482;2023-08-07T11:35:13;16.70;99.90
34646;DHT22;20857;47.808;12.482;2023-08-07T11:37:46;17.00;99.90
34646;DHT22;20857;47.808;12.482;2023-08-07T11:40:13;16.80;99.90
34646;DHT22;20857;47.808;12.482;2023-08-07T11:42:39;16.80;99.90
34646;DHT22;20857;47.808;12.482;2023-08-07T11:45:05;16.70;99.90
34646;DHT22;20857;47.808;12.482;2023-08-07T11:47:31;16.90;99.90
34646;DHT22;20857;47.808;12.482;2023-08-07T11:49:58;16.90;99.90
34646;DHT22;20857;47.808;12.482;2023-08-07T11:52:24;16.60;99.90
34646;DHT22;20857;47.808;12.482;2023-08-07T11:54:52;16.60;99.90
34646;DHT22;20857;47.808;12.482;2023-08-07T11:57:19;16.50;99.90
34646;DHT22;20857;47.808;12.482;2023-08-07T11:59:54;16.90;99.90
34646;DHT22;20857;47.808;12.482;2023-08-07T12:02:26;17.20;99.90
34646;DHT22;20857;47.808;12.482;2023-08-07T12:04:57;18.00;99.90
34646;DHT22;20857;47.808;12.482;2023-08-07T12:07:24;18.90;99.90
34646;DHT22;20857;47.808;12.482;2023-08-07T12:09:52;19.10;99.90
34646;DHT22;20857;47.808;12.482;2023-08-07T12:12:19;18.80;99.90
34646;DHT22;20857;47.808;12.482;2023-08-07T12:14:45;17.80;99.90
34646;DHT22;20857;47.808;12.482;2023-08-07T12:17:11;17.10;99.90
34646;DHT22;20857;47.808;12.482;2023-08-07T12:19:37;16.00;99.90
34646;DHT22;20857;47.808;12.482;2023-08-07T12:22:06;15.40;99.90
34646;DHT22;20857;47.808;12.482;2023-08-07T12:24:35;14.70;99.90
34646;DHT22;20857;47.808;12.482;2023-08-07T12:27:00;14.50;99.90
34646;DHT22;20857;47.808;12.482;2023-08-07T12:29:26;14.30;99.90
34646;DHT22;20857;47.808;12.482;2023-08-07T12:31:54;14.20;99.90
34646;DHT22;20857;47.808;12.482;2023-08-07T12:34:20;14.40;99.90
34646;DHT22;20857;47.808;12.482;2023-08-07T12:36:46;14.50;99.90
34646;DHT22;20857;47.808;12.482;2023-08-07T12:39:12;14.80;99.90
34646;DHT22;20857;47.808;12.482;2023-08-07T12:41:38;15.40;99.90
34646;DHT22;20857;47.808;12.482;2023-08-07T12:44:03;16.00;99.90
34646;DHT22;20857;47.808;12.482;2023-08-07T12:46:29;16.40;99.90
34646;DHT22;20857;47.808;12.482;2023-08-07T12:48:55;16.30;99.90
34646;DHT22;20857;47.808;12.482;2023-08-07T12:51:20;16.10;99.90
34646;DHT22;20857;47.808;12.482;2023-08-07T12:53:46;16.50;99.90
34646;DHT22;20857;47.808;12.482;2023-08-07T12:56:12;16.40;99.90
34646;DHT22;20857;47.808;12.482;2023-08-07T12:58:38;16.70;99.90
34646;DHT22;20857;47.808;12.482;2023-08-07T13:01:04;16.60;99.90
34646;DHT22;20857;47.808;12.482;2023-08-07T13:03:30;17.20;99.90
34646;DHT22;20857;47.808;12.482;2023-08-07T13:05:55;17.30;99.90
34646;DHT22;20857;47.808;12.482;2023-08-07T13:08:21;17.60;99.90
34646;DHT22;20857;47.808;12.482;2023-08-07T13:10:46;18.00;99.90
34646;DHT22;20857;47.808;12.482;2023-08-07T13:13:12;18.30;99.90
34646;DHT22;20857;47.808;12.482;2023-08-07T13:15:37;18.60;99.10
34646;DHT22;20857;47.808;12.482;2023-08-07T13:18:03;18.40;98.50
34646;DHT22;20857;47.808;12.482;2023-08-07T13:20:29;17.80;99.20
34646;DHT22;20857;47.808;12.482;2023-08-07T13:22:59;17.40;98.50
34646;DHT22;20857;47.808;12.482;2023-08-07T13:25:24;17.80;99.90
34646;DHT22;20857;47.808;12.482;2023-08-07T13:27:50;18.00;99.10
34646;DHT22;20857;47.808;12.482;2023-08-07T13:30:16;17.60;98.60
34646;DHT22;20857;47.808;12.482;2023-08-07T13:32:41;17.40;99.70
34646;DHT22;20857;47.808;12.482;2023-08-07T13:35:07;17.40;99.90
34646;DHT22;20857;47.808;12.482;2023-08-07T13:37:34;16.90;99.50
34646;DHT22;20857;47.808;12.482;2023-08-07T13:39:59;16.20;99.80
34646;DHT22;20857;47.808;12.482;2023-08-07T13:42:25;15.70;99.90
34646;DHT22;20857;47.808;12.482;2023-08-07T13:44:53;15.20;99.90
34646;DHT22;20857;47.808;12.482;2023-08-07T13:47:19;14.70;99.90
34646;DHT22;20857;47.808;12.482;2023-08-07T13:49:46;14.30;99.90
34646;DHT22;20857;47.808;12.482;2023-08-07T13:52:11;13.90;99.90
34646;DHT22;20857;47.808;12.482;2023-08-07T13:54:37;13.40;99.90
34646;DHT22;20857;47.808;12.482;2023-08-07T13:57:03;12.60;99.90
34646;DHT22;20857;47.808;12.482;2023-08-07T13:59:28;12.10;99.90
34646;DHT22;20857;47.808;12.482;2023-08-07T14:01:54;11.80;99.90
34646;DHT22;20857;47.808;12.482;2023-08-07T14:04:21;11.60;99.90
34646;DHT22;20857;47.808;12.482;2023-08-07T14:06:47;11.60;99.90
34646;DHT22;20857;47.808;12.482;2023-08-07T14:09:12;11.60;99.90
34646;DHT22;20857;47.808;12.482;2023-08-07T14:11:39;11.60;99.90
34646;DHT22;20857;47.808;12.482;2023-08-07T14:14:05;11.70;99.90
34646;DHT22;20857;47.808;12.482;2023-08-07T14:16:30;11.70;99.90
34646;DHT22;20857;47.808;12.482;2023-08-07T14:18:57;11.90;99.90
34646;DHT22;20857;47.808;12.482;2023-08-07T14:21:22;12.30;99.90
34646;DHT22;20857;47.808;12.482;2023-08-07T14:23:48;12.50;99.90
34646;DHT22;20857;47.808;12.482;2023-08-07T14:26:15;12.60;99.90
34646;DHT22;20857;47.808;12.482;2023-08-07T14:28:50;12.70;99.90
34646;DHT22;20857;47.808;12.482;2023-08-07T14:31:16;12.70;99.90
34646;DHT22;20857;47.808;12.482;2023-08-07T14:33:42;12.90;99.90
34646;DHT22;20857;47.808;12.482;2023-08-07T14:36:07;12.60;99.90
34646;DHT22;20857;47.808;12.482;2023-08-07T14:38:33;12.70;99.90
34646;DHT22;20857;47.808;12.482;2023-08-07T14:40:59;12.80;99.90
34646;DHT22;20857;47.808;12.482;2023-08-07T14:43:26;13.00;99.90
34646;DHT22;20857;47.808;12.482;2023-08-07T14:45:54;12.90;99.90
34646;DHT22;20857;47.808;12.482;2023-08-07T14:48:20;13.00;99.90
34646;DHT22;20857;47.808;12.482;2023-08-07T14:50:46;13.20;99.90
34646;DHT22;20857;47.808;12.482;2023-08-07T14:53:11;13.60;99.90
34646;DHT22;20857;47.808;12.482;2023-08-07T14:55:37;13.90;99.90
34646;DHT22;20857;47.808;12.482;2023-08-07T14:58:02;14.30;99.90
34646;DHT22;20857;47.808;12.482;2023-08-07T15:00:28;14.50;99.90
34646;DHT22;20857;47.808;12.482;2023-08-07T15:02:53;14.90;99.90
34646;DHT22;20857;47.808;12.482;2023-08-07T15:05:24;14.90;99.90
34646;DHT22;20857;47.808;12.482;2023-08-07T15:07:49;14.60;99.90
34646;DHT22;20857;47.808;12.482;2023-08-07T15:10:15;14.20;99.90
34646;DHT22;20857;47.808;12.482;2023-08-07T15:12:42;13.70;99.90
34646;DHT22;20857;47.808;12.482;2023-08-07T15:15:08;13.60;99.90
34646;DHT22;20857;47.808;12.482;2023-08-07T15:17:34;13.40;99.90
34646;DHT22;20857;47.808;12.482;2023-08-07T15:19:59;13.30;99.90
34646;DHT22;20857;47.808;12.482;2023-08-07T15:22:25;13.20;99.90
34646;DHT22;20857;47.808;12.482;2023-08-07T15:24:50;13.00;99.90
34646;DHT22;20857;47.808;12.482;2023-08-07T15:27:16;13.00;99.90
34646;DHT22;20857;47.808;12.482;2023-08-07T15:29:44;13.30;99.90
34646;DHT22;20857;47.808;12.482;2023-08-07T15:32:11;13.40;99.90
34646;DHT22;20857;47.808;12.482;2023-08-07T15:34:39;13.50;99.90
34646;DHT22;20857;47.808;12.482;2023-08-07T15:37:04;13.60;99.90
34646;DHT22;20857;47.808;12.482;2023-08-07T15:39:30;13.80;99.90
34646;DHT22;20857;47.808;12.482;2023-08-07T15:41:56;14.10;99.90
34646;DHT22;20857;47.808;12.482;2023-08-07T15:44:22;14.40;99.90
34646;DHT22;20857;47.808;12.482;2023-08-07T15:46:47;14.70;99.90
34646;DHT22;20857;47.808;12.482;2023-08-07T15:49:13;15.20;99.90
34646;DHT22;20857;47.808;12.482;2023-08-07T15:51:39;15.50;99.90
34646;DHT22;20857;47.808;12.482;2023-08-07T15:54:04;15.70;99.90
34646;DHT22;20857;47.808;12.482;2023-08-07T15:56:30;16.60;99.90
34646;DHT22;20857;47.808;12.482;2023-08-07T15:58:55;18.00;99.90
34646;DHT22;20857;47.808;12.482;2023-08-07T16:01:21;18.00;99.90
34646;DHT22;20857;47.808;12.482;2023-08-07T16:03:47;17.60;99.90
34646;DHT22;20857;47.808;12.482;2023-08-07T16:06:12;16.80;99.90
34646;DHT22;20857;47.808;12.482;2023-08-07T16:08:38;15.90;99.90
34646;DHT22;20857;47.808;12.482;2023-08-07T16:11:03;15.30;99.90
34646;DHT22;20857;47.808;12.482;2023-08-07T16:13:30;14.80;99.90
34646;DHT22;20857;47.808;12.482;2023-08-07T16:15:56;14.40;99.90
34646;DHT22;20857;47.808;12.482;2023-08-07T16:18:21;14.10;99.90
34646;DHT22;20857;47.808;12.482;2023-08-07T16:20:47;14.00;99.90
34646;DHT22;20857;47.808;12.482;2023-08-07T16:23:13;13.90;99.90
34646;DHT22;20857;47.808;12.482;2023-08-07T16:25:38;13.80;99.90
34646;DHT22;20857;47.808;12.482;2023-08-07T16:28:04;13.60;99.90
34646;DHT22;20857;47.808;12.482;2023-08-07T16:30:30;13.40;99.90
34646;DHT22;20857;47.808;12.482;2023-08-07T16:32:56;13.20;99.90
34646;DHT22;20857;47.808;12.482;2023-08-07T16:35:22;13.20;99.90
34646;DHT22;20857;47.808;12.482;2023-08-07T16:37:48;13.20;99.90
34646;DHT22;20857;47.808;12.482;2023-08-07T16:40:13;13.10;99.90
34646;DHT22;20857;47.808;12.482;2023-08-07T16:42:39;13.30;99.90